Huvudsida
METAR-TAF:

METAR-TAF

Flygplatser :

Flughafen Klagenfurt

Klagenfurt, Österrike

latitud: 46-39N, longitud: 014-20E, höjd: 448 m

Aktuellt väderrapport

Denna rapport gjordes för 44 minuter sedan, klockan 13:20 UTC
Vind 5 kt från ost, varierande mellan nordost och syd/sydost
Temperatur 28°C
Fuktighet 45%
Tryck 1021 hPa
Sikt 10 km eller mer
Få moln på en höjd av 6000 ft

METAR: LOWK 241320Z 10005KT 050V150 9999 FEW060 28/15 Q1021 NOSIG

Tid: 16:04 (14:04 UTC)

Väderprognos

Denna rapport gjordes för 2 timmar och 49 minuter sedan, klockan 11:15 UTC
Prognos gäller från 24 kl. 12 UTC till 25 kl. 12 UTC
Vind 2 kt varierande vindriktning
Sikt 10 km eller mer
Få moln på en höjd av 6000 ft
Temporärt
från 24 kl. 12 UTC till 24 kl. 18 UTC
Vind 7 kt från ost
Spridda moln på en höjd av 6000 ft
Få moln på en höjd av 6000 ft, Högtornande cumulus.

TAF: LOWK 241115Z 2412/2512 VRB02KT 9999 FEW060 TX29/2512Z TN17/2504Z TEMPO 2412/2418 09007KT SCT060 FEW060TCU

Aktuella väderrapporter och prognoser från 4000 flygplatser (METAR- och TAF-rapporter).

De tillgängliga stationerna syns som gula och röda prickar på kartan.

För musen över prickarna för att se namnen på stationerna.

Klicka sedan för att få väderrapporter och prognoser.

För att ändra kartan: Klicka på de gröna knapparna med ett svart kors på för att zooma in; den gröna knappen med ett streck på för att zooma ut; eller på de gröna pilarna för angränsande kartor.


METAR-TAF: